Time;durP1;ratioP1;P1;durP2;ratioP2;P2;SDS_P1;SDS_P2;PMS_P1;PMS_P2;Temp;Humidity;BMP_temperature;BMP_pressure;BME280_temperature;BME280_humidity;BME280_pressure;Samples;Min_cycle;Max_cycle;Signal;HPM_P1;HPM_P2
2024/02/05 00:00:44;;;;;;;;;;;10.20;99.90;;;;;;5039953;28;19974;-75
2024/02/05 00:03:10;;;;;;;;;;;10.20;99.90;;;;;;5014653;28;19913;-75
2024/02/05 00:05:36;;;;;;;;;;;10.20;99.90;;;;;;5050778;28;19928;-75
2024/02/05 00:08:03;;;;;;;;;;;10.20;99.90;;;;;;5034084;28;19924;-75
2024/02/05 00:10:29;;;;;;;;;;;10.20;99.90;;;;;;5017378;28;19917;-75
2024/02/05 00:12:55;;;;;;;;;;;10.30;99.90;;;;;;5034832;28;19999;-75
2024/02/05 00:15:20;;;;;;;;;;;10.20;99.90;;;;;;5033857;28;20070;-75
2024/02/05 00:17:46;;;;;;;;;;;10.30;99.90;;;;;;5033644;28;19916;-75
2024/02/05 00:20:12;;;;;;;;;;;10.30;99.90;;;;;;5033694;28;20231;-75
2024/02/05 00:22:38;;;;;;;;;;;10.30;99.90;;;;;;5035906;28;20252;-75
2024/02/05 00:25:04;;;;;;;;;;;10.30;99.90;;;;;;5053176;28;20035;-74
2024/02/05 00:27:29;;;;;;;;;;;10.30;99.90;;;;;;5033628;28;19921;-76
2024/02/05 00:29:57;;;;;;;;;;;10.30;99.90;;;;;;5023218;28;20463;-76
2024/02/05 00:32:23;;;;;;;;;;;10.30;99.90;;;;;;5000590;28;19927;-74
2024/02/05 00:34:49;;;;;;;;;;;10.40;99.90;;;;;;5016056;28;20318;-74
2024/02/05 00:37:15;;;;;;;;;;;10.30;99.90;;;;;;5034015;28;19914;-74
2024/02/05 00:39:40;;;;;;;;;;;10.40;99.90;;;;;;5026260;28;19923;-75
2024/02/05 00:42:06;;;;;;;;;;;10.30;99.90;;;;;;5033919;28;19975;-74
2024/02/05 00:44:32;;;;;;;;;;;10.30;99.90;;;;;;5027355;28;20615;-74
2024/02/05 00:46:57;;;;;;;;;;;10.30;99.90;;;;;;5016509;28;19917;-74
2024/02/05 00:49:23;;;;;;;;;;;10.30;99.90;;;;;;5016501;28;19928;-74
2024/02/05 00:51:48;;;;;;;;;;;10.30;99.90;;;;;;5014773;28;19925;-74
2024/02/05 00:54:16;;;;;;;;;;;10.30;99.90;;;;;;5016517;28;19921;-74
2024/02/05 00:56:42;;;;;;;;;;;10.30;99.90;;;;;;5029476;28;20004;-74
2024/02/05 00:59:08;;;;;;;;;;;10.30;99.90;;;;;;5014134;28;20012;-74
2024/02/05 01:01:33;;;;;;;;;;;10.30;99.90;;;;;;5027442;28;19921;-74
2024/02/05 01:03:59;;;;;;;;;;;10.30;99.90;;;;;;5037266;28;20019;-74
2024/02/05 01:06:25;;;;;;;;;;;10.30;99.90;;;;;;5052566;28;19917;-74
2024/02/05 01:08:51;;;;;;;;;;;10.30;99.90;;;;;;5029541;28;19917;-75
2024/02/05 01:11:17;;;;;;;;;;;10.30;99.90;;;;;;4999189;28;19913;-75
2024/02/05 01:13:42;;;;;;;;;;;10.30;99.90;;;;;;5023300;28;20390;-75
2024/02/05 01:16:08;;;;;;;;;;;10.30;99.90;;;;;;5047299;28;19997;-74
2024/02/05 01:18:34;;;;;;;;;;;10.30;99.90;;;;;;5017205;28;19917;-75
2024/02/05 01:21:03;;;;;;;;;;;10.30;99.90;;;;;;5049442;28;19928;-74
2024/02/05 01:23:29;;;;;;;;;;;10.20;99.90;;;;;;5033941;28;19916;-75
2024/02/05 01:25:55;;;;;;;;;;;10.30;99.90;;;;;;5032322;28;19913;-75
2024/02/05 01:28:21;;;;;;;;;;;10.30;99.90;;;;;;5031863;28;19963;-75
2024/02/05 01:30:46;;;;;;;;;;;10.20;99.90;;;;;;5042101;28;19920;-74
2024/02/05 01:33:12;;;;;;;;;;;10.20;99.90;;;;;;5040096;28;19925;-74
2024/02/05 01:35:38;;;;;;;;;;;10.20;99.90;;;;;;5049456;28;19952;-74
2024/02/05 01:38:04;;;;;;;;;;;10.20;99.90;;;;;;5042791;28;20413;-74
2024/02/05 01:40:29;;;;;;;;;;;10.20;99.90;;;;;;5053199;28;19917;-75
2024/02/05 01:42:55;;;;;;;;;;;10.20;99.90;;;;;;5036177;28;20565;-75
2024/02/05 01:45:21;;;;;;;;;;;10.20;99.90;;;;;;5020784;28;20234;-74
2024/02/05 01:47:46;;;;;;;;;;;10.30;99.90;;;;;;5031159;28;20342;-75
2024/02/05 01:50:12;;;;;;;;;;;10.20;99.90;;;;;;5039124;28;19999;-75
2024/02/05 01:52:45;;;;;;;;;;;10.20;99.90;;;;;;5041765;28;20008;-74
2024/02/05 01:55:14;;;;;;;;;;;10.20;99.90;;;;;;5032964;28;19967;-75
2024/02/05 01:57:40;;;;;;;;;;;10.20;99.90;;;;;;5033030;28;19913;-75
2024/02/05 02:00:06;;;;;;;;;;;10.10;99.90;;;;;;5013166;28;20377;-75
2024/02/05 02:02:33;;;;;;;;;;;10.10;99.90;;;;;;5018223;28;19948;-75
2024/02/05 02:04:59;;;;;;;;;;;10.10;99.90;;;;;;5019372;28;20260;-75
2024/02/05 02:07:25;;;;;;;;;;;10.10;99.90;;;;;;5021385;28;19928;-75
2024/02/05 02:09:51;;;;;;;;;;;10.10;99.90;;;;;;5002295;28;20317;-75
2024/02/05 02:12:17;;;;;;;;;;;10.10;99.90;;;;;;5017402;28;19963;-75
2024/02/05 02:14:42;;;;;;;;;;;10.10;99.90;;;;;;5026730;28;19917;-75
2024/02/05 02:17:08;;;;;;;;;;;10.10;99.90;;;;;;5017177;28;19913;-75
2024/02/05 02:19:45;;;;;;;;;;;10.10;99.90;;;;;;5017023;28;19918;-76
2024/02/05 02:22:44;;;;;;;;;;;10.20;99.90;;;;;;5048451;28;19999;-75
2024/02/05 02:25:10;;;;;;;;;;;10.10;99.90;;;;;;5044776;28;19912;-75
2024/02/05 02:27:36;;;;;;;;;;;10.10;99.90;;;;;;5053508;28;19951;-74
2024/02/05 02:30:02;;;;;;;;;;;10.10;99.90;;;;;;5019437;28;20395;-74
2024/02/05 02:32:37;;;;;;;;;;;10.10;99.90;;;;;;5036259;28;19921;-75
2024/02/05 02:35:08;;;;;;;;;;;10.10;99.90;;;;;;5035986;28;19921;-75
2024/02/05 02:37:35;;;;;;;;;;;10.20;99.90;;;;;;5035279;28;20004;-75
2024/02/05 02:40:09;;;;;;;;;;;10.20;99.90;;;;;;5049109;28;19913;-75
2024/02/05 02:42:37;;;;;;;;;;;10.20;99.90;;;;;;5035636;28;19917;-75
2024/02/05 02:45:03;;;;;;;;;;;10.20;99.90;;;;;;5017418;28;19913;-75
2024/02/05 02:47:29;;;;;;;;;;;10.20;99.90;;;;;;5011900;28;19955;-75
2024/02/05 02:49:55;;;;;;;;;;;10.20;99.90;;;;;;5039492;28;19913;-75
2024/02/05 02:52:21;;;;;;;;;;;10.20;99.90;;;;;;5036248;28;19917;-75
2024/02/05 02:54:47;;;;;;;;;;;10.30;99.90;;;;;;5040815;28;20006;-75
2024/02/05 02:57:15;;;;;;;;;;;10.30;99.90;;;;;;5035175;28;19917;-75
2024/02/05 02:59:41;;;;;;;;;;;10.30;99.90;;;;;;5019742;28;19913;-76
2024/02/05 03:02:07;;;;;;;;;;;10.20;99.90;;;;;;5039931;28;19913;-75
2024/02/05 03:04:32;;;;;;;;;;;10.30;99.90;;;;;;5035336;28;19943;-75
2024/02/05 03:06:58;;;;;;;;;;;10.20;99.90;;;;;;5031852;28;19918;-75
2024/02/05 03:09:24;;;;;;;;;;;10.30;99.90;;;;;;5015822;28;20433;-75
2024/02/05 03:11:50;;;;;;;;;;;10.20;99.90;;;;;;5041860;28;20008;-75
2024/02/05 03:14:15;;;;;;;;;;;10.20;99.90;;;;;;5018682;28;19923;-75
2024/02/05 03:16:41;;;;;;;;;;;10.20;99.90;;;;;;5040009;28;19924;-75
2024/02/05 03:19:08;;;;;;;;;;;10.20;99.90;;;;;;5055786;28;19919;-75
2024/02/05 03:21:34;;;;;;;;;;;10.20;99.90;;;;;;5047191;28;20254;-76
2024/02/05 03:23:59;;;;;;;;;;;10.20;99.90;;;;;;5035453;28;19944;-75
2024/02/05 03:26:25;;;;;;;;;;;10.20;99.90;;;;;;5035712;28;19917;-75
2024/02/05 03:28:50;;;;;;;;;;;10.20;99.90;;;;;;5034043;28;19982;-75
2024/02/05 03:31:16;;;;;;;;;;;10.10;99.90;;;;;;5035719;28;19924;-75
2024/02/05 03:33:42;;;;;;;;;;;10.20;99.90;;;;;;5018682;28;20576;-76
2024/02/05 03:36:08;;;;;;;;;;;10.10;99.90;;;;;;5021262;28;20003;-75
2024/02/05 03:38:34;;;;;;;;;;;10.10;99.90;;;;;;5036092;28;20288;-75
2024/02/05 03:40:59;;;;;;;;;;;10.10;99.90;;;;;;5035499;28;19917;-75
2024/02/05 03:43:25;;;;;;;;;;;10.10;99.90;;;;;;5018870;28;19971;-76
2024/02/05 03:45:51;;;;;;;;;;;10.10;99.90;;;;;;5018457;28;19924;-76
2024/02/05 03:48:19;;;;;;;;;;;10.10;99.90;;;;;;5016881;28;19967;-76
2024/02/05 03:50:44;;;;;;;;;;;10.10;99.90;;;;;;5018814;28;19952;-76
2024/02/05 03:53:10;;;;;;;;;;;10.10;99.90;;;;;;5002118;28;19983;-76
2024/02/05 03:55:36;;;;;;;;;;;10.10;99.90;;;;;;5002875;28;19927;-76
2024/02/05 03:58:03;;;;;;;;;;;10.00;99.90;;;;;;5025136;28;20002;-76
2024/02/05 04:00:29;;;;;;;;;;;10.00;99.90;;;;;;5043949;28;19913;-76
2024/02/05 04:02:58;;;;;;;;;;;10.00;99.90;;;;;;5033426;28;19924;-76
2024/02/05 04:05:31;;;;;;;;;;;10.00;99.90;;;;;;5036941;28;19975;-75
2024/02/05 04:07:57;;;;;;;;;;;10.00;99.90;;;;;;5033408;28;20024;-75
2024/02/05 04:10:23;;;;;;;;;;;10.00;99.90;;;;;;5050869;28;19917;-75
2024/02/05 04:12:48;;;;;;;;;;;10.00;99.90;;;;;;5033127;28;20692;-75
2024/02/05 04:15:14;;;;;;;;;;;10.00;99.90;;;;;;5033379;28;19917;-74
2024/02/05 04:17:40;;;;;;;;;;;10.00;99.90;;;;;;5016713;28;19955;-75
2024/02/05 04:20:06;;;;;;;;;;;10.00;99.90;;;;;;5017113;28;19952;-75
2024/02/05 04:22:31;;;;;;;;;;;10.00;99.90;;;;;;5014923;28;19943;-75
2024/02/05 04:24:57;;;;;;;;;;;10.00;99.90;;;;;;5019439;28;20322;-75
2024/02/05 04:27:23;;;;;;;;;;;9.90;99.90;;;;;;5039283;28;20617;-75
2024/02/05 04:29:48;;;;;;;;;;;9.90;99.90;;;;;;5043968;28;20021;-75
2024/02/05 04:32:14;;;;;;;;;;;9.90;99.90;;;;;;5033698;28;20032;-75
2024/02/05 04:34:39;;;;;;;;;;;9.90;99.90;;;;;;5026290;28;20657;-74
2024/02/05 04:37:05;;;;;;;;;;;9.90;99.90;;;;;;5050983;28;20690;-74
2024/02/05 04:39:31;;;;;;;;;;;9.90;99.90;;;;;;5034054;28;20322;-75
2024/02/05 04:41:56;;;;;;;;;;;9.90;99.90;;;;;;5033551;28;19917;-75
2024/02/05 04:44:23;;;;;;;;;;;9.90;99.90;;;;;;5017240;28;20026;-75
2024/02/05 04:46:49;;;;;;;;;;;9.90;99.90;;;;;;5033481;28;19917;-75
2024/02/05 04:49:18;;;;;;;;;;;9.90;99.90;;;;;;5025637;28;19913;-75
2024/02/05 04:51:46;;;;;;;;;;;9.90;99.90;;;;;;5053914;28;19931;-75
2024/02/05 04:54:12;;;;;;;;;;;9.90;99.90;;;;;;5053356;28;19917;-75
2024/02/05 04:56:37;;;;;;;;;;;9.80;99.90;;;;;;5034546;28;20345;-74
2024/02/05 04:59:04;;;;;;;;;;;9.80;99.90;;;;;;5057853;28;19917;-74
2024/02/05 05:01:29;;;;;;;;;;;9.80;99.90;;;;;;5042723;28;19973;-75
2024/02/05 05:03:55;;;;;;;;;;;9.90;99.90;;;;;;5028892;28;19925;-75
2024/02/05 05:06:22;;;;;;;;;;;9.90;99.90;;;;;;5037340;28;19913;-75
2024/02/05 05:08:47;;;;;;;;;;;10.00;99.90;;;;;;5052520;28;19932;-75
2024/02/05 05:11:22;;;;;;;;;;;10.00;99.90;;;;;;5041674;28;19944;-75
2024/02/05 05:13:49;;;;;;;;;;;10.00;99.90;;;;;;5016429;28;20032;-75
2024/02/05 05:16:14;;;;;;;;;;;9.90;99.90;;;;;;5019716;28;19921;-74
2024/02/05 05:18:40;;;;;;;;;;;10.00;99.90;;;;;;5051519;28;19974;-74
2024/02/05 05:21:05;;;;;;;;;;;10.00;99.90;;;;;;5013905;28;20415;-75
2024/02/05 05:23:31;;;;;;;;;;;9.90;99.90;;;;;;5033383;28;20003;-74
2024/02/05 05:25:57;;;;;;;;;;;9.90;99.90;;;;;;5034393;28;19996;-74
2024/02/05 05:28:22;;;;;;;;;;;9.90;99.90;;;;;;5022724;28;19921;-77
2024/02/05 05:30:48;;;;;;;;;;;9.90;99.90;;;;;;5035508;28;20044;-74
2024/02/05 05:33:13;;;;;;;;;;;9.90;99.90;;;;;;5016467;28;19921;-75
2024/02/05 05:35:39;;;;;;;;;;;9.90;99.90;;;;;;5000836;28;19913;-74
2024/02/05 05:38:05;;;;;;;;;;;9.90;99.90;;;;;;5000293;28;19913;-75
2024/02/05 05:40:33;;;;;;;;;;;9.90;99.90;;;;;;5045668;28;20018;-76
2024/02/05 05:42:59;;;;;;;;;;;9.90;99.90;;;;;;5043841;28;19913;-76
2024/02/05 05:45:27;;;;;;;;;;;9.90;99.90;;;;;;5020959;28;19939;-74
2024/02/05 05:47:52;;;;;;;;;;;9.90;99.90;;;;;;5020489;28;19943;-74
2024/02/05 05:50:18;;;;;;;;;;;9.90;99.90;;;;;;5020361;28;20000;-75
2024/02/05 05:52:44;;;;;;;;;;;9.90;99.90;;;;;;5037114;28;19925;-75
2024/02/05 05:55:10;;;;;;;;;;;10.00;99.90;;;;;;5033259;28;19913;-75
2024/02/05 05:57:35;;;;;;;;;;;10.00;99.90;;;;;;5000227;28;19914;-75
2024/02/05 06:00:05;;;;;;;;;;;10.00;99.90;;;;;;5031458;28;20334;-74
2024/02/05 06:02:31;;;;;;;;;;;10.00;99.90;;;;;;5019582;28;20004;-75
2024/02/05 06:04:56;;;;;;;;;;;10.00;99.90;;;;;;5036578;28;20003;-75
2024/02/05 06:07:22;;;;;;;;;;;10.00;99.90;;;;;;5052708;28;20333;-75
2024/02/05 06:09:48;;;;;;;;;;;10.00;99.90;;;;;;5041595;28;20021;-75
2024/02/05 06:12:13;;;;;;;;;;;10.00;99.90;;;;;;5047132;28;19959;-75
2024/02/05 06:14:40;;;;;;;;;;;10.10;99.90;;;;;;5040994;28;20634;-75
2024/02/05 06:17:06;;;;;;;;;;;10.10;99.90;;;;;;5048357;28;19924;-75
2024/02/05 06:19:32;;;;;;;;;;;10.10;99.90;;;;;;5022633;28;20389;-76
2024/02/05 06:21:57;;;;;;;;;;;10.10;99.90;;;;;;5033521;28;19913;-75
2024/02/05 06:24:23;;;;;;;;;;;10.10;99.90;;;;;;5033083;28;19920;-76
2024/02/05 06:26:48;;;;;;;;;;;10.10;99.90;;;;;;5032618;28;19917;-76
2024/02/05 06:29:14;;;;;;;;;;;10.10;99.90;;;;;;5021336;28;19925;-76
2024/02/05 06:31:40;;;;;;;;;;;10.10;99.90;;;;;;5020559;28;20343;-79
2024/02/05 06:34:05;;;;;;;;;;;10.10;99.90;;;;;;5036429;28;20015;-78
2024/02/05 06:36:31;;;;;;;;;;;10.10;99.90;;;;;;5018744;28;19995;-78
2024/02/05 06:38:57;;;;;;;;;;;10.00;99.90;;;;;;5040326;28;19924;-78
2024/02/05 06:41:22;;;;;;;;;;;10.00;99.90;;;;;;5036606;28;19924;-78
2024/02/05 06:43:48;;;;;;;;;;;10.00;99.90;;;;;;5031222;28;20322;-78
2024/02/05 06:46:14;;;;;;;;;;;10.00;99.90;;;;;;5040863;28;19917;-78
2024/02/05 06:48:39;;;;;;;;;;;9.90;99.90;;;;;;5019857;28;20253;-78
2024/02/05 06:51:05;;;;;;;;;;;9.90;99.90;;;;;;5015626;28;19953;-78
2024/02/05 06:53:31;;;;;;;;;;;9.90;99.90;;;;;;5032981;28;20000;-78
2024/02/05 06:55:56;;;;;;;;;;;9.90;99.90;;;;;;5034010;28;19928;-77
2024/02/05 06:58:22;;;;;;;;;;;9.90;99.90;;;;;;5021881;28;19924;-78
2024/02/05 07:00:48;;;;;;;;;;;9.90;99.90;;;;;;5056366;28;19913;-78
2024/02/05 07:03:14;;;;;;;;;;;9.80;99.90;;;;;;5056335;28;19979;-78
2024/02/05 07:05:41;;;;;;;;;;;9.80;99.90;;;;;;5051645;28;19921;-78
2024/02/05 07:08:06;;;;;;;;;;;9.80;99.90;;;;;;5036653;28;19932;-78
2024/02/05 07:10:32;;;;;;;;;;;9.70;99.90;;;;;;5036496;28;19916;-78
2024/02/05 07:12:57;;;;;;;;;;;9.70;99.90;;;;;;5020141;28;19917;-77
2024/02/05 07:15:23;;;;;;;;;;;9.70;99.90;;;;;;5052515;28;19917;-77
2024/02/05 07:17:49;;;;;;;;;;;9.70;99.90;;;;;;5020163;28;19913;-78
2024/02/05 07:20:16;;;;;;;;;;;9.70;99.90;;;;;;5056562;28;19936;-77
2024/02/05 07:22:42;;;;;;;;;;;9.70;99.90;;;;;;5035451;28;19921;-77
2024/02/05 07:25:08;;;;;;;;;;;9.70;99.90;;;;;;5006618;28;19919;-78
2024/02/05 07:27:35;;;;;;;;;;;9.70;99.90;;;;;;5016450;28;20249;-78
2024/02/05 07:30:00;;;;;;;;;;;9.60;99.90;;;;;;5016621;28;20346;-78
2024/02/05 07:32:26;;;;;;;;;;;9.60;99.90;;;;;;5030823;28;19943;-78
2024/02/05 07:34:52;;;;;;;;;;;9.60;99.90;;;;;;5017944;28;19917;-78
2024/02/05 07:37:17;;;;;;;;;;;9.60;99.90;;;;;;5035169;28;19970;-78
2024/02/05 07:39:43;;;;;;;;;;;9.60;99.90;;;;;;5035209;28;19995;-78
2024/02/05 07:42:09;;;;;;;;;;;9.60;99.90;;;;;;5040852;28;19917;-78
2024/02/05 07:44:34;;;;;;;;;;;9.60;99.90;;;;;;5042145;28;19924;-78
2024/02/05 07:47:00;;;;;;;;;;;9.60;99.90;;;;;;4998085;28;19913;-78
2024/02/05 07:49:27;;;;;;;;;;;9.60;99.90;;;;;;5033975;28;20014;-77
2024/02/05 07:51:55;;;;;;;;;;;9.60;99.90;;;;;;5023404;28;20507;-78
2024/02/05 07:54:24;;;;;;;;;;;9.60;99.90;;;;;;5026725;28;19971;-78
2024/02/05 07:56:50;;;;;;;;;;;9.60;99.90;;;;;;5027630;28;19921;-78
2024/02/05 07:59:15;;;;;;;;;;;9.60;99.90;;;;;;5000312;28;19978;-80
2024/02/05 08:01:41;;;;;;;;;;;9.60;99.90;;;;;;5038330;28;19925;-77
2024/02/05 08:04:07;;;;;;;;;;;9.60;99.90;;;;;;5046484;28;19913;-78
2024/02/05 08:06:32;;;;;;;;;;;9.60;99.90;;;;;;5015570;28;19928;-78
2024/02/05 08:08:58;;;;;;;;;;;9.60;99.90;;;;;;5033730;28;19927;-79
2024/02/05 08:11:24;;;;;;;;;;;9.50;99.90;;;;;;5032752;28;19971;-79
2024/02/05 08:13:51;;;;;;;;;;;9.50;99.90;;;;;;5050144;28;19917;-79
2024/02/05 08:16:17;;;;;;;;;;;9.50;99.90;;;;;;5017136;28;19913;-76
2024/02/05 08:18:42;;;;;;;;;;;9.50;99.90;;;;;;5032579;28;19914;-78
2024/02/05 08:21:08;;;;;;;;;;;9.50;99.90;;;;;;5033870;28;20616;-78
2024/02/05 08:23:38;;;;;;;;;;;9.40;99.90;;;;;;5017180;28;20249;-78
2024/02/05 08:26:04;;;;;;;;;;;9.50;99.90;;;;;;5025667;28;19918;-78
2024/02/05 08:28:29;;;;;;;;;;;9.40;99.90;;;;;;5021579;28;19974;-78
2024/02/05 08:30:56;;;;;;;;;;;9.50;99.90;;;;;;5014518;28;20403;-78
2024/02/05 08:33:22;;;;;;;;;;;9.50;99.90;;;;;;4982403;28;19914;-78
2024/02/05 08:35:47;;;;;;;;;;;9.50;99.90;;;;;;4982005;28;19917;-78
2024/02/05 08:38:13;;;;;;;;;;;9.50;99.90;;;;;;4977958;28;20353;-78
2024/02/05 08:40:39;;;;;;;;;;;9.50;99.90;;;;;;4996893;28;19928;-78
2024/02/05 08:43:05;;;;;;;;;;;9.50;99.90;;;;;;4997764;28;19925;-78
2024/02/05 08:45:30;;;;;;;;;;;9.50;99.90;;;;;;5014332;28;19913;-78
2024/02/05 08:47:56;;;;;;;;;;;9.50;99.90;;;;;;4981444;28;19925;-78
2024/02/05 08:50:31;;;;;;;;;;;9.60;99.90;;;;;;4998200;28;20257;-78
2024/02/05 08:52:57;;;;;;;;;;;9.60;99.90;;;;;;4990037;28;19918;-77
2024/02/05 08:55:22;;;;;;;;;;;9.60;99.90;;;;;;5011457;28;19920;-78
2024/02/05 08:57:50;;;;;;;;;;;9.60;99.90;;;;;;5029929;28;20000;-78
2024/02/05 09:00:17;;;;;;;;;;;9.60;99.90;;;;;;4999470;28;19928;-78
2024/02/05 09:02:44;;;;;;;;;;;9.70;99.90;;;;;;5033099;28;19939;-79
2024/02/05 09:05:09;;;;;;;;;;;9.60;99.90;;;;;;5018491;28;20390;-79
2024/02/05 09:07:35;;;;;;;;;;;9.60;99.90;;;;;;5013700;28;20629;-78
2024/02/05 09:10:01;;;;;;;;;;;9.60;99.90;;;;;;4997503;28;19913;-78
2024/02/05 09:12:27;;;;;;;;;;;9.60;99.90;;;;;;5013923;28;19924;-78
2024/02/05 09:14:54;;;;;;;;;;;9.60;99.90;;;;;;5014633;28;19913;-79
2024/02/05 09:17:20;;;;;;;;;;;9.70;99.90;;;;;;4993930;28;19940;-78
2024/02/05 09:19:46;;;;;;;;;;;9.70;99.90;;;;;;5029844;28;20322;-78
2024/02/05 09:22:12;;;;;;;;;;;9.70;99.90;;;;;;4980877;28;19936;-78
2024/02/05 09:24:37;;;;;;;;;;;9.70;99.90;;;;;;4997346;28;19913;-75
2024/02/05 09:27:03;;;;;;;;;;;9.70;99.90;;;;;;5008620;28;20329;-75
2024/02/05 09:29:29;;;;;;;;;;;9.80;99.90;;;;;;5024626;28;19936;-75
2024/02/05 09:31:54;;;;;;;;;;;9.80;99.90;;;;;;5053162;28;19917;-75
2024/02/05 09:34:21;;;;;;;;;;;9.80;99.90;;;;;;5046373;28;20409;-75
2024/02/05 09:36:47;;;;;;;;;;;9.80;99.90;;;;;;5043658;28;19920;-75
2024/02/05 09:39:14;;;;;;;;;;;9.80;99.90;;;;;;5041139;28;20326;-75
2024/02/05 09:41:41;;;;;;;;;;;9.80;99.90;;;;;;5019632;28;19913;-75
2024/02/05 09:44:08;;;;;;;;;;;9.80;99.90;;;;;;4997179;28;20237;-75
2024/02/05 09:46:34;;;;;;;;;;;9.90;99.90;;;;;;5018864;28;19913;-74
2024/02/05 09:49:03;;;;;;;;;;;9.90;99.90;;;;;;5037271;28;19932;-75
2024/02/05 09:51:29;;;;;;;;;;;9.90;99.90;;;;;;5050200;28;19913;-75
2024/02/05 09:53:58;;;;;;;;;;;9.90;99.90;;;;;;5033702;28;19948;-75
2024/02/05 09:56:25;;;;;;;;;;;9.90;99.90;;;;;;5032849;28;19996;-75
2024/02/05 09:58:51;;;;;;;;;;;9.90;99.90;;;;;;5033306;28;19917;-76
2024/02/05 10:01:18;;;;;;;;;;;9.90;99.90;;;;;;5028333;28;20583;-75
2024/02/05 10:03:44;;;;;;;;;;;9.80;99.90;;;;;;5030493;28;20835;-74
2024/02/05 10:06:10;;;;;;;;;;;9.90;99.90;;;;;;5016721;28;19917;-75
2024/02/05 10:08:41;;;;;;;;;;;9.90;99.90;;;;;;5038140;28;20372;-74
2024/02/05 10:11:07;;;;;;;;;;;9.90;99.90;;;;;;5035465;28;19916;-75
2024/02/05 10:13:36;;;;;;;;;;;9.90;99.90;;;;;;5052343;28;20015;-75
2024/02/05 10:16:04;;;;;;;;;;;9.90;99.90;;;;;;5052497;28;19966;-75
2024/02/05 10:18:32;;;;;;;;;;;9.90;99.90;;;;;;5035302;28;19921;-75
2024/02/05 10:21:03;;;;;;;;;;;9.90;99.90;;;;;;5028891;28;19918;-74
2024/02/05 10:23:29;;;;;;;;;;;9.90;99.90;;;;;;5031411;28;19960;-75
2024/02/05 10:25:56;;;;;;;;;;;10.00;99.90;;;;;;5011362;28;19940;-81
2024/02/05 10:28:22;;;;;;;;;;;10.00;99.90;;;;;;5022983;28;19925;-80
2024/02/05 10:30:56;;;;;;;;;;;9.90;99.90;;;;;;5012306;28;20357;-74
2024/02/05 10:33:23;;;;;;;;;;;9.90;99.90;;;;;;5015103;28;20003;-73
2024/02/05 10:35:54;;;;;;;;;;;9.90;99.90;;;;;;5017882;28;19917;-75
2024/02/05 10:38:28;;;;;;;;;;;9.90;99.90;;;;;;5034908;28;19916;-75
2024/02/05 10:40:55;;;;;;;;;;;9.90;99.90;;;;;;5040706;28;19917;-75
2024/02/05 10:43:23;;;;;;;;;;;9.90;99.90;;;;;;5046342;28;19992;-75
2024/02/05 10:45:52;;;;;;;;;;;10.00;99.90;;;;;;5019488;28;20425;-75
2024/02/05 10:48:18;;;;;;;;;;;10.00;99.90;;;;;;5037870;28;19921;-75
2024/02/05 10:50:44;;;;;;;;;;;10.00;99.90;;;;;;5037192;28;19960;-75
2024/02/05 10:53:11;;;;;;;;;;;9.90;99.90;;;;;;5017964;28;19920;-75
2024/02/05 10:55:39;;;;;;;;;;;9.90;99.90;;;;;;5017788;28;19917;-74
2024/02/05 10:58:05;;;;;;;;;;;9.90;99.90;;;;;;5015076;28;20033;-76
2024/02/05 11:00:36;;;;;;;;;;;9.90;99.90;;;;;;5017968;28;19929;-75
2024/02/05 11:03:05;;;;;;;;;;;10.00;99.90;;;;;;5026001;28;19999;-75
2024/02/05 11:05:32;;;;;;;;;;;9.90;99.90;;;;;;5041205;28;19917;-75
2024/02/05 11:08:00;;;;;;;;;;;9.90;99.90;;;;;;5016128;28;19960;-75
2024/02/05 11:10:28;;;;;;;;;;;9.90;99.90;;;;;;5039921;28;20393;-74
2024/02/05 11:12:57;;;;;;;;;;;9.80;99.90;;;;;;5053107;28;20020;-75
2024/02/05 11:15:25;;;;;;;;;;;10.10;99.90;;;;;;4998318;28;19963;-74
2024/02/05 11:17:52;;;;;;;;;;;10.00;99.90;;;;;;5018878;28;19917;-74
2024/02/05 11:20:18;;;;;;;;;;;10.10;99.90;;;;;;5007291;28;19920;-74
2024/02/05 11:22:49;;;;;;;;;;;10.00;99.90;;;;;;5049832;28;20003;-76
2024/02/05 11:25:17;;;;;;;;;;;10.00;99.90;;;;;;5024034;28;19917;-74
2024/02/05 11:27:43;;;;;;;;;;;10.00;99.90;;;;;;5016795;28;20003;-75
2024/02/05 11:30:15;;;;;;;;;;;10.00;99.90;;;;;;5017413;28;19917;-74
2024/02/05 11:32:54;;;;;;;;;;;10.10;99.90;;;;;;5014704;28;19924;-75
2024/02/05 11:35:22;;;;;;;;;;;10.00;99.90;;;;;;5028061;28;19921;-75
2024/02/05 11:37:49;;;;;;;;;;;10.10;99.90;;;;;;5038009;28;19921;-75
2024/02/05 11:40:24;;;;;;;;;;;10.10;99.90;;;;;;5037938;28;19916;-75
2024/02/05 11:43:26;;;;;;;;;;;10.10;99.90;;;;;;5026423;28;19917;-75
2024/02/05 11:45:55;;;;;;;;;;;10.10;99.90;;;;;;5022602;28;19983;-74
2024/02/05 11:48:21;;;;;;;;;;;10.10;99.90;;;;;;5019434;28;20413;-74
2024/02/05 11:50:47;;;;;;;;;;;10.10;99.90;;;;;;5015435;28;19924;-75
2024/02/05 11:53:14;;;;;;;;;;;10.20;99.90;;;;;;5016724;28;19963;-74
2024/02/05 11:55:40;;;;;;;;;;;10.10;99.90;;;;;;5050317;28;19913;-75
2024/02/05 11:58:09;;;;;;;;;;;10.10;99.90;;;;;;5030852;28;19988;-75
2024/02/05 12:00:35;;;;;;;;;;;10.10;99.90;;;;;;5017372;28;19918;-74
2024/02/05 12:03:02;;;;;;;;;;;10.10;99.90;;;;;;5035195;28;19947;-75
2024/02/05 12:05:29;;;;;;;;;;;10.10;99.90;;;;;;5062103;28;19913;-74
2024/02/05 12:07:55;;;;;;;;;;;10.20;99.90;;;;;;5054608;28;20261;-74
2024/02/05 12:10:21;;;;;;;;;;;10.20;99.90;;;;;;5031037;28;20312;-74
2024/02/05 12:12:47;;;;;;;;;;;10.10;99.90;;;;;;4998491;28;20357;-75
2024/02/05 12:15:19;;;;;;;;;;;10.20;99.90;;;;;;5027519;28;19917;-74
2024/02/05 12:17:48;;;;;;;;;;;10.10;99.90;;;;;;5020714;28;19917;-75
2024/02/05 12:20:18;;;;;;;;;;;10.10;99.90;;;;;;5030277;28;20350;-76
2024/02/05 12:22:45;;;;;;;;;;;10.00;99.90;;;;;;5033919;28;20319;-76
2024/02/05 12:25:10;;;;;;;;;;;10.10;99.90;;;;;;5034011;28;20008;-75
2024/02/05 12:27:37;;;;;;;;;;;10.10;99.90;;;;;;5029789;28;19921;-76
2024/02/05 12:30:05;;;;;;;;;;;10.20;99.90;;;;;;4991288;28;19924;-76
2024/02/05 12:32:30;;;;;;;;;;;10.20;99.90;;;;;;5016957;28;20506;-75
2024/02/05 12:34:59;;;;;;;;;;;10.20;99.90;;;;;;5053275;28;19916;-74
2024/02/05 12:37:25;;;;;;;;;;;10.20;99.90;;;;;;5025442;28;19995;-75
2024/02/05 12:39:52;;;;;;;;;;;10.20;99.90;;;;;;5033342;28;20272;-74
2024/02/05 12:42:18;;;;;;;;;;;10.20;99.90;;;;;;5028502;28;19921;-76
2024/02/05 12:44:44;;;;;;;;;;;10.20;99.90;;;;;;5004139;28;19952;-75
2024/02/05 12:47:13;;;;;;;;;;;10.20;99.90;;;;;;5033317;28;19964;-75
2024/02/05 12:49:39;;;;;;;;;;;10.20;99.90;;;;;;5022759;28;19921;-75
2024/02/05 12:52:07;;;;;;;;;;;10.20;99.90;;;;;;5033546;28;19913;-75
2024/02/05 12:54:37;;;;;;;;;;;10.20;99.90;;;;;;5033732;28;19939;-75
2024/02/05 12:57:06;;;;;;;;;;;10.20;99.90;;;;;;5032524;28;19917;-75
2024/02/05 12:59:32;;;;;;;;;;;10.20;99.90;;;;;;5016451;28;20013;-75
2024/02/05 13:01:58;;;;;;;;;;;10.10;99.90;;;;;;5000312;28;20058;-75
2024/02/05 13:04:25;;;;;;;;;;;10.30;99.90;;;;;;5016768;28;19913;-74
2024/02/05 13:07:00;;;;;;;;;;;10.40;99.90;;;;;;5024689;28;19913;-75
2024/02/05 13:09:27;;;;;;;;;;;10.40;99.90;;;;;;5051086;28;20346;-75
2024/02/05 13:11:55;;;;;;;;;;;10.40;99.90;;;;;;5037049;28;19913;-75
2024/02/05 13:14:21;;;;;;;;;;;10.50;99.90;;;;;;5053114;28;19912;-75
2024/02/05 13:16:49;;;;;;;;;;;10.40;99.90;;;;;;5043609;28;19941;-75
2024/02/05 13:19:15;;;;;;;;;;;10.40;99.90;;;;;;4944996;28;19937;-76
2024/02/05 13:21:41;;;;;;;;;;;10.50;99.90;;;;;;4993646;28;19921;-75
2024/02/05 13:24:13;;;;;;;;;;;10.30;99.90;;;;;;5013534;28;19917;-74
2024/02/05 13:26:48;;;;;;;;;;;10.50;99.90;;;;;;5014200;28;19924;-75
2024/02/05 13:29:22;;;;;;;;;;;10.50;99.90;;;;;;5008344;28;20265;-75
2024/02/05 13:31:51;;;;;;;;;;;10.50;99.90;;;;;;4997120;28;20562;-75
2024/02/05 13:34:20;;;;;;;;;;;10.50;99.90;;;;;;5006263;28;19998;-75
2024/02/05 13:36:46;;;;;;;;;;;10.50;99.90;;;;;;4983895;28;19898;-80
2024/02/05 13:39:12;;;;;;;;;;;10.50;99.90;;;;;;4983363;28;20346;-75
2024/02/05 13:41:42;;;;;;;;;;;10.50;99.90;;;;;;4967411;28;19914;-75
2024/02/05 13:44:08;;;;;;;;;;;10.50;99.90;;;;;;4959373;28;19926;-75
2024/02/05 13:46:38;;;;;;;;;;;10.40;99.90;;;;;;4963216;28;19928;-75
2024/02/05 13:49:07;;;;;;;;;;;10.50;99.90;;;;;;4998330;28;19925;-75
2024/02/05 13:51:33;;;;;;;;;;;10.50;99.90;;;;;;4977543;28;20045;-75
2024/02/05 13:54:02;;;;;;;;;;;10.50;99.90;;;;;;5001073;28;19917;-75
2024/02/05 13:56:28;;;;;;;;;;;10.50;99.90;;;;;;4991616;28;19921;-75
2024/02/05 13:58:54;;;;;;;;;;;10.50;99.90;;;;;;4978232;28;19914;-75
2024/02/05 14:01:22;;;;;;;;;;;10.50;99.90;;;;;;4963921;28;19914;-75
2024/02/05 14:03:48;;;;;;;;;;;10.40;99.90;;;;;;4990193;28;20306;-75
2024/02/05 14:06:17;;;;;;;;;;;10.50;99.90;;;;;;5003644;28;19996;-75
2024/02/05 14:08:50;;;;;;;;;;;10.40;99.90;;;;;;4980063;28;19925;-75
2024/02/05 14:11:16;;;;;;;;;;;10.40;99.90;;;;;;5017180;28;19983;-75
2024/02/05 14:13:42;;;;;;;;;;;10.40;99.90;;;;;;4987477;28;19953;-76
2024/02/05 14:16:09;;;;;;;;;;;10.40;99.90;;;;;;4997564;28;19949;-75
2024/02/05 14:18:35;;;;;;;;;;;10.50;99.90;;;;;;4981455;28;20420;-75